sensor_id;sensor_type;location;lat;lon;timestamp;pressure;altitude;pressure_sealevel;temperature;humidity
49030;BME280;43337;52.070;4.508;2022-11-15T00:00:15;100919.47;;;6.58;96.19
49030;BME280;43337;52.070;4.508;2022-11-15T00:02:40;100925.50;;;6.60;96.21
49030;BME280;43337;52.070;4.508;2022-11-15T00:05:06;100925.63;;;6.57;96.39
49030;BME280;43337;52.070;4.508;2022-11-15T00:07:31;100931.56;;;6.63;96.35
49030;BME280;43337;52.070;4.508;2022-11-15T00:09:56;100929.81;;;6.63;96.50
49030;BME280;43337;52.070;4.508;2022-11-15T00:12:22;100919.41;;;6.62;96.84
49030;BME280;43337;52.070;4.508;2022-11-15T00:14:47;100908.19;;;6.56;96.70
49030;BME280;43337;52.070;4.508;2022-11-15T00:17:13;100924.59;;;6.63;96.56
49030;BME280;43337;52.070;4.508;2022-11-15T00:19:38;100911.47;;;6.65;96.70
49030;BME280;43337;52.070;4.508;2022-11-15T00:22:09;100923.66;;;6.66;96.51
49030;BME280;43337;52.070;4.508;2022-11-15T00:24:50;100918.50;;;6.61;96.87
49030;BME280;43337;52.070;4.508;2022-11-15T00:27:22;100915.75;;;6.67;96.94
49030;BME280;43337;52.070;4.508;2022-11-15T00:29:47;100914.00;;;6.68;97.25
49030;BME280;43337;52.070;4.508;2022-11-15T00:32:12;100908.88;;;6.63;97.00
49030;BME280;43337;52.070;4.508;2022-11-15T00:34:38;100900.19;;;6.63;97.40
49030;BME280;43337;52.070;4.508;2022-11-15T00:37:03;100890.56;;;6.63;97.02
49030;BME280;43337;52.070;4.508;2022-11-15T00:39:28;100896.72;;;6.62;96.78
49030;BME280;43337;52.070;4.508;2022-11-15T00:41:54;100887.19;;;6.59;96.97
49030;BME280;43337;52.070;4.508;2022-11-15T00:44:19;100896.53;;;6.70;97.25
49030;BME280;43337;52.070;4.508;2022-11-15T00:46:45;100898.31;;;6.68;97.01
49030;BME280;43337;52.070;4.508;2022-11-15T00:49:10;100877.63;;;6.58;97.72
49030;BME280;43337;52.070;4.508;2022-11-15T00:51:36;100903.47;;;6.71;97.21
49030;BME280;43337;52.070;4.508;2022-11-15T00:54:01;100895.56;;;6.72;97.44
49030;BME280;43337;52.070;4.508;2022-11-15T00:56:27;100890.38;;;6.71;97.33
49030;BME280;43337;52.070;4.508;2022-11-15T00:58:52;100892.09;;;6.72;97.41
49030;BME280;43337;52.070;4.508;2022-11-15T01:01:18;100891.25;;;6.71;97.43
49030;BME280;43337;52.070;4.508;2022-11-15T01:03:43;100892.88;;;6.75;97.41
49030;BME280;43337;52.070;4.508;2022-11-15T01:06:09;100896.19;;;6.82;97.57
49030;BME280;43337;52.070;4.508;2022-11-15T01:08:35;100884.94;;;6.78;97.25
49030;BME280;43337;52.070;4.508;2022-11-15T01:11:05;100889.13;;;6.85;97.50
49030;BME280;43337;52.070;4.508;2022-11-15T01:13:32;100883.91;;;6.85;98.10
49030;BME280;43337;52.070;4.508;2022-11-15T01:15:59;100863.94;;;6.81;98.11
49030;BME280;43337;52.070;4.508;2022-11-15T01:18:25;100877.69;;;6.90;97.98
49030;BME280;43337;52.070;4.508;2022-11-15T01:20:50;100864.59;;;6.90;97.71
49030;BME280;43337;52.070;4.508;2022-11-15T01:23:15;100863.63;;;6.94;97.86
49030;BME280;43337;52.070;4.508;2022-11-15T01:25:41;100859.38;;;6.90;97.79
49030;BME280;43337;52.070;4.508;2022-11-15T01:28:06;100857.47;;;6.95;97.88
49030;BME280;43337;52.070;4.508;2022-11-15T01:30:32;100840.22;;;6.88;98.03
49030;BME280;43337;52.070;4.508;2022-11-15T01:32:57;100846.16;;;6.94;98.08
49030;BME280;43337;52.070;4.508;2022-11-15T01:35:22;100853.00;;;7.00;98.30
49030;BME280;43337;52.070;4.508;2022-11-15T01:37:48;100854.56;;;7.05;98.09
49030;BME280;43337;52.070;4.508;2022-11-15T01:40:13;100852.03;;;7.02;97.92
49030;BME280;43337;52.070;4.508;2022-11-15T01:42:39;100858.00;;;7.07;98.12
49030;BME280;43337;52.070;4.508;2022-11-15T01:45:05;100849.19;;;7.10;98.26
49030;BME280;43337;52.070;4.508;2022-11-15T01:47:37;100857.03;;;7.12;98.23
49030;BME280;43337;52.070;4.508;2022-11-15T01:50:08;100844.78;;;7.12;98.17
49030;BME280;43337;52.070;4.508;2022-11-15T01:52:36;100846.34;;;7.18;98.65
49030;BME280;43337;52.070;4.508;2022-11-15T01:55:21;100839.47;;;7.15;98.24
49030;BME280;43337;52.070;4.508;2022-11-15T01:57:50;100840.19;;;7.20;98.50
49030;BME280;43337;52.070;4.508;2022-11-15T02:00:18;100833.13;;;7.22;98.69
49030;BME280;43337;52.070;4.508;2022-11-15T02:02:43;100836.59;;;7.24;98.42
49030;BME280;43337;52.070;4.508;2022-11-15T02:05:09;100831.25;;;7.27;98.43
49030;BME280;43337;52.070;4.508;2022-11-15T02:07:35;100828.63;;;7.27;98.36
49030;BME280;43337;52.070;4.508;2022-11-15T02:10:18;100819.81;;;7.30;98.68
49030;BME280;43337;52.070;4.508;2022-11-15T02:12:44;100811.94;;;7.31;98.82
49030;BME280;43337;52.070;4.508;2022-11-15T02:15:11;100815.31;;;7.35;98.51
49030;BME280;43337;52.070;4.508;2022-11-15T02:17:41;100803.84;;;7.39;98.80
49030;BME280;43337;52.070;4.508;2022-11-15T02:36:46;100781.56;;;7.54;98.93
49030;BME280;43337;52.070;4.508;2022-11-15T02:39:37;100783.91;;;7.63;98.88
49030;BME280;43337;52.070;4.508;2022-11-15T02:42:21;100777.75;;;7.64;99.30
49030;BME280;43337;52.070;4.508;2022-11-15T02:45:09;100788.13;;;7.67;98.90
49030;BME280;43337;52.070;4.508;2022-11-15T02:47:42;100783.75;;;7.68;99.28
49030;BME280;43337;52.070;4.508;2022-11-15T02:50:10;100786.22;;;7.72;99.06
49030;BME280;43337;52.070;4.508;2022-11-15T02:52:37;100768.84;;;7.70;99.10
49030;BME280;43337;52.070;4.508;2022-11-15T02:55:03;100756.75;;;7.66;99.32
49030;BME280;43337;52.070;4.508;2022-11-15T02:57:51;100780.78;;;7.78;99.43
49030;BME280;43337;52.070;4.508;2022-11-15T03:00:19;100777.22;;;7.81;99.62
49030;BME280;43337;52.070;4.508;2022-11-15T03:08:36;100770.06;;;7.86;99.54
49030;BME280;43337;52.070;4.508;2022-11-15T03:11:09;100763.16;;;7.83;99.54
49030;BME280;43337;52.070;4.508;2022-11-15T03:13:49;100764.72;;;7.89;99.34
49030;BME280;43337;52.070;4.508;2022-11-15T03:16:41;100773.34;;;7.93;99.36
49030;BME280;43337;52.070;4.508;2022-11-15T03:21:53;100762.00;;;7.92;99.47
49030;BME280;43337;52.070;4.508;2022-11-15T03:24:21;100768.81;;;7.98;99.27
49030;BME280;43337;52.070;4.508;2022-11-15T03:26:48;100768.81;;;7.98;99.54
49030;BME280;43337;52.070;4.508;2022-11-15T03:29:17;100750.53;;;7.96;99.33
49030;BME280;43337;52.070;4.508;2022-11-15T03:31:48;100749.19;;;8.10;99.83
49030;BME280;43337;52.070;4.508;2022-11-15T03:34:32;100744.16;;;8.03;99.72
49030;BME280;43337;52.070;4.508;2022-11-15T03:37:00;100749.16;;;8.11;99.76
49030;BME280;43337;52.070;4.508;2022-11-15T03:39:25;100750.78;;;8.14;99.92
49030;BME280;43337;52.070;4.508;2022-11-15T03:47:32;100752.72;;;8.33;99.92
49030;BME280;43337;52.070;4.508;2022-11-15T03:50:02;100753.53;;;8.37;100.00
49030;BME280;43337;52.070;4.508;2022-11-15T03:52:32;100761.13;;;8.45;100.00
49030;BME280;43337;52.070;4.508;2022-11-15T03:55:00;100759.22;;;8.50;100.00
49030;BME280;43337;52.070;4.508;2022-11-15T03:57:26;100751.09;;;8.56;100.00
49030;BME280;43337;52.070;4.508;2022-11-15T03:59:51;100752.50;;;8.66;100.00
49030;BME280;43337;52.070;4.508;2022-11-15T04:02:17;100751.38;;;8.73;100.00
49030;BME280;43337;52.070;4.508;2022-11-15T04:04:42;100746.81;;;8.78;100.00
49030;BME280;43337;52.070;4.508;2022-11-15T04:07:08;100754.34;;;8.88;100.00
49030;BME280;43337;52.070;4.508;2022-11-15T04:09:33;100745.50;;;8.90;100.00
49030;BME280;43337;52.070;4.508;2022-11-15T04:11:58;100742.69;;;8.95;100.00
49030;BME280;43337;52.070;4.508;2022-11-15T04:14:24;100743.41;;;9.00;100.00
49030;BME280;43337;52.070;4.508;2022-11-15T04:16:49;100743.34;;;9.01;100.00
49030;BME280;43337;52.070;4.508;2022-11-15T04:19:14;100739.78;;;9.02;100.00
49030;BME280;43337;52.070;4.508;2022-11-15T04:21:58;100753.53;;;9.09;100.00
49030;BME280;43337;52.070;4.508;2022-11-15T04:24:42;100746.41;;;9.13;100.00
49030;BME280;43337;52.070;4.508;2022-11-15T04:27:07;100746.31;;;9.16;100.00
49030;BME280;43337;52.070;4.508;2022-11-15T04:29:33;100734.03;;;9.16;100.00
49030;BME280;43337;52.070;4.508;2022-11-15T04:32:03;100728.69;;;9.18;100.00
49030;BME280;43337;52.070;4.508;2022-11-15T04:34:28;100730.06;;;9.28;100.00
49030;BME280;43337;52.070;4.508;2022-11-15T04:36:53;100726.47;;;9.31;100.00
49030;BME280;43337;52.070;4.508;2022-11-15T04:39:37;100718.59;;;9.31;100.00
49030;BME280;43337;52.070;4.508;2022-11-15T04:42:03;100725.34;;;9.36;100.00
49030;BME280;43337;52.070;4.508;2022-11-15T04:44:28;100713.16;;;9.35;100.00
49030;BME280;43337;52.070;4.508;2022-11-15T04:46:53;100733.06;;;9.41;100.00
49030;BME280;43337;52.070;4.508;2022-11-15T04:49:19;100722.06;;;9.31;100.00
49030;BME280;43337;52.070;4.508;2022-11-15T04:51:44;100734.09;;;9.37;100.00
49030;BME280;43337;52.070;4.508;2022-11-15T04:54:09;100747.00;;;9.43;100.00
49030;BME280;43337;52.070;4.508;2022-11-15T04:56:35;100740.03;;;9.42;100.00
49030;BME280;43337;52.070;4.508;2022-11-15T04:59:00;100733.13;;;9.39;100.00
49030;BME280;43337;52.070;4.508;2022-11-15T05:01:26;100740.94;;;9.41;100.00
49030;BME280;43337;52.070;4.508;2022-11-15T05:03:51;100738.44;;;9.38;100.00
49030;BME280;43337;52.070;4.508;2022-11-15T05:06:35;100753.78;;;9.48;100.00
49030;BME280;43337;52.070;4.508;2022-11-15T05:09:00;100757.31;;;9.47;100.00
49030;BME280;43337;52.070;4.508;2022-11-15T05:11:26;100761.53;;;9.51;100.00
49030;BME280;43337;52.070;4.508;2022-11-15T05:13:52;100765.88;;;9.52;100.00
49030;BME280;43337;52.070;4.508;2022-11-15T05:16:18;100769.31;;;9.54;100.00
49030;BME280;43337;52.070;4.508;2022-11-15T05:18:43;100750.06;;;9.54;100.00
49030;BME280;43337;52.070;4.508;2022-11-15T05:21:11;100764.69;;;9.61;100.00
49030;BME280;43337;52.070;4.508;2022-11-15T05:23:37;100748.84;;;9.63;100.00
49030;BME280;43337;52.070;4.508;2022-11-15T05:26:04;100747.31;;;9.57;100.00
49030;BME280;43337;52.070;4.508;2022-11-15T05:28:30;100751.59;;;9.60;100.00
49030;BME280;43337;52.070;4.508;2022-11-15T05:31:03;100758.38;;;9.65;100.00
49030;BME280;43337;52.070;4.508;2022-11-15T05:33:29;100760.94;;;9.67;100.00
49030;BME280;43337;52.070;4.508;2022-11-15T05:36:00;100755.88;;;9.62;100.00
49030;BME280;43337;52.070;4.508;2022-11-15T05:38:28;100760.81;;;9.70;100.00
49030;BME280;43337;52.070;4.508;2022-11-15T05:40:54;100749.81;;;9.60;100.00
49030;BME280;43337;52.070;4.508;2022-11-15T05:43:19;100747.91;;;9.64;100.00
49030;BME280;43337;52.070;4.508;2022-11-15T05:45:45;100762.66;;;9.68;100.00
49030;BME280;43337;52.070;4.508;2022-11-15T05:48:11;100759.28;;;9.64;100.00
49030;BME280;43337;52.070;4.508;2022-11-15T05:50:38;100752.44;;;9.60;100.00
49030;BME280;43337;52.070;4.508;2022-11-15T05:53:07;100755.03;;;9.62;100.00
49030;BME280;43337;52.070;4.508;2022-11-15T05:55:32;100770.59;;;9.66;100.00
49030;BME280;43337;52.070;4.508;2022-11-15T05:58:00;100751.47;;;9.63;100.00
49030;BME280;43337;52.070;4.508;2022-11-15T06:00:25;100767.03;;;9.67;100.00
49030;BME280;43337;52.070;4.508;2022-11-15T06:02:51;100761.16;;;9.61;100.00
49030;BME280;43337;52.070;4.508;2022-11-15T06:05:16;100772.38;;;9.66;100.00
49030;BME280;43337;52.070;4.508;2022-11-15T06:07:41;100763.88;;;9.59;100.00
49030;BME280;43337;52.070;4.508;2022-11-15T06:10:08;100765.03;;;9.52;100.00
49030;BME280;43337;52.070;4.508;2022-11-15T06:12:33;100772.78;;;9.55;100.00
49030;BME280;43337;52.070;4.508;2022-11-15T06:14:58;100782.28;;;9.59;100.00
49030;BME280;43337;52.070;4.508;2022-11-15T06:17:24;100773.03;;;9.49;100.00
49030;BME280;43337;52.070;4.508;2022-11-15T06:19:49;100779.88;;;9.53;100.00
49030;BME280;43337;52.070;4.508;2022-11-15T06:22:14;100745.75;;;9.29;100.00
49030;BME280;43337;52.070;4.508;2022-11-15T06:24:40;100765.50;;;9.40;100.00
49030;BME280;43337;52.070;4.508;2022-11-15T06:27:05;100791.41;;;9.49;100.00
49030;BME280;43337;52.070;4.508;2022-11-15T06:29:30;100781.16;;;9.43;100.00
49030;BME280;43337;52.070;4.508;2022-11-15T06:31:56;100781.28;;;9.40;100.00
49030;BME280;43337;52.070;4.508;2022-11-15T06:34:21;100779.47;;;9.42;100.00
49030;BME280;43337;52.070;4.508;2022-11-15T06:36:46;100757.28;;;9.25;100.00
49030;BME280;43337;52.070;4.508;2022-11-15T06:39:12;100790.09;;;9.39;100.00
49030;BME280;43337;52.070;4.508;2022-11-15T06:41:37;100762.66;;;9.22;100.00
49030;BME280;43337;52.070;4.508;2022-11-15T06:44:02;100789.44;;;9.32;100.00
49030;BME280;43337;52.070;4.508;2022-11-15T06:46:28;100795.66;;;9.29;100.00
49030;BME280;43337;52.070;4.508;2022-11-15T06:48:54;100798.47;;;9.25;100.00
49030;BME280;43337;52.070;4.508;2022-11-15T06:51:19;100808.06;;;9.26;100.00
49030;BME280;43337;52.070;4.508;2022-11-15T06:53:45;100800.34;;;9.21;100.00
49030;BME280;43337;52.070;4.508;2022-11-15T06:56:10;100811.78;;;9.20;100.00
49030;BME280;43337;52.070;4.508;2022-11-15T06:58:36;100798.75;;;9.17;100.00
49030;BME280;43337;52.070;4.508;2022-11-15T07:01:07;100811.97;;;9.16;100.00
49030;BME280;43337;52.070;4.508;2022-11-15T07:03:40;100805.00;;;9.15;100.00
49030;BME280;43337;52.070;4.508;2022-11-15T07:06:07;100790.38;;;9.08;100.00
49030;BME280;43337;52.070;4.508;2022-11-15T07:08:33;100810.28;;;9.13;100.00
49030;BME280;43337;52.070;4.508;2022-11-15T07:11:01;100798.88;;;9.14;100.00
49030;BME280;43337;52.070;4.508;2022-11-15T07:13:28;100799.69;;;9.16;100.00
49030;BME280;43337;52.070;4.508;2022-11-15T07:15:54;100793.78;;;9.10;100.00
49030;BME280;43337;52.070;4.508;2022-11-15T07:18:19;100810.09;;;9.19;100.00
49030;BME280;43337;52.070;4.508;2022-11-15T07:20:45;100801.22;;;9.22;100.00
49030;BME280;43337;52.070;4.508;2022-11-15T07:23:11;100803.06;;;9.20;100.00
49030;BME280;43337;52.070;4.508;2022-11-15T07:25:36;100815.16;;;9.24;100.00
49030;BME280;43337;52.070;4.508;2022-11-15T07:28:02;100806.34;;;9.25;100.00
49030;BME280;43337;52.070;4.508;2022-11-15T07:30:28;100777.94;;;9.13;100.00
49030;BME280;43337;52.070;4.508;2022-11-15T07:32:57;100788.81;;;9.25;100.00
49030;BME280;43337;52.070;4.508;2022-11-15T07:35:24;100784.56;;;9.23;100.00
49030;BME280;43337;52.070;4.508;2022-11-15T07:38:03;100791.41;;;9.27;100.00
49030;BME280;43337;52.070;4.508;2022-11-15T07:40:30;100794.81;;;9.29;100.00
49030;BME280;43337;52.070;4.508;2022-11-15T07:43:05;100794.81;;;9.29;100.00
49030;BME280;43337;52.070;4.508;2022-11-15T07:45:31;100793.28;;;9.23;100.00
49030;BME280;43337;52.070;4.508;2022-11-15T07:47:59;100800.16;;;9.27;100.00
49030;BME280;43337;52.070;4.508;2022-11-15T07:50:24;100793.19;;;9.26;100.00
49030;BME280;43337;52.070;4.508;2022-11-15T07:52:58;100787.94;;;9.26;100.00
49030;BME280;43337;52.070;4.508;2022-11-15T07:55:25;100786.19;;;9.25;100.00
49030;BME280;43337;52.070;4.508;2022-11-15T07:57:52;100777.75;;;9.17;100.00
49030;BME280;43337;52.070;4.508;2022-11-15T08:00:17;100781.13;;;9.21;100.00
49030;BME280;43337;52.070;4.508;2022-11-15T08:02:43;100775.09;;;9.19;99.94
49030;BME280;43337;52.070;4.508;2022-11-15T08:05:08;100770.78;;;9.16;100.00
49030;BME280;43337;52.070;4.508;2022-11-15T08:07:34;100759.66;;;9.10;100.00
49030;BME280;43337;52.070;4.508;2022-11-15T08:09:59;100775.13;;;9.17;100.00
49030;BME280;43337;52.070;4.508;2022-11-15T08:12:29;100763.84;;;9.15;100.00
49030;BME280;43337;52.070;4.508;2022-11-15T08:14:55;100754.19;;;9.16;99.61
49030;BME280;43337;52.070;4.508;2022-11-15T08:17:22;100763.84;;;9.15;99.73
49030;BME280;43337;52.070;4.508;2022-11-15T08:19:48;100776.78;;;9.20;100.00
49030;BME280;43337;52.070;4.508;2022-11-15T08:22:13;100733.69;;;9.02;99.74
49030;BME280;43337;52.070;4.508;2022-11-15T08:24:39;100754.63;;;9.27;99.84
49030;BME280;43337;52.070;4.508;2022-11-15T08:27:04;100761.47;;;9.31;99.75
49030;BME280;43337;52.070;4.508;2022-11-15T08:29:29;100757.06;;;9.32;99.77
49030;BME280;43337;52.070;4.508;2022-11-15T08:31:55;100748.16;;;9.36;99.50
49030;BME280;43337;52.070;4.508;2022-11-15T08:34:21;100759.41;;;9.39;99.54
49030;BME280;43337;52.070;4.508;2022-11-15T08:36:46;100750.59;;;9.40;98.91
49030;BME280;43337;52.070;4.508;2022-11-15T08:39:12;100755.81;;;9.42;99.17
49030;BME280;43337;52.070;4.508;2022-11-15T08:41:40;100745.31;;;9.42;99.17
49030;BME280;43337;52.070;4.508;2022-11-15T08:44:05;100728.72;;;9.40;99.52
49030;BME280;43337;52.070;4.508;2022-11-15T08:46:30;100713.44;;;9.27;99.05
49030;BME280;43337;52.070;4.508;2022-11-15T08:48:56;100732.75;;;9.48;99.38
49030;BME280;43337;52.070;4.508;2022-11-15T08:51:21;100732.75;;;9.48;99.25
49030;BME280;43337;52.070;4.508;2022-11-15T08:53:47;100738.56;;;9.57;99.26
49030;BME280;43337;52.070;4.508;2022-11-15T08:56:14;100729.22;;;9.49;99.11
49030;BME280;43337;52.070;4.508;2022-11-15T08:58:39;100728.94;;;9.57;99.10
49030;BME280;43337;52.070;4.508;2022-11-15T09:01:05;100740.09;;;9.62;98.67
49030;BME280;43337;52.070;4.508;2022-11-15T09:03:31;100739.91;;;9.67;98.58
49030;BME280;43337;52.070;4.508;2022-11-15T09:05:58;100744.25;;;9.68;98.72
49030;BME280;43337;52.070;4.508;2022-11-15T09:08:26;100744.94;;;9.73;98.88
49030;BME280;43337;52.070;4.508;2022-11-15T09:10:54;100746.56;;;9.75;98.46
49030;BME280;43337;52.070;4.508;2022-11-15T09:13:19;100740.53;;;9.73;98.60
49030;BME280;43337;52.070;4.508;2022-11-15T09:15:45;100738.31;;;9.85;98.47
49030;BME280;43337;52.070;4.508;2022-11-15T09:18:11;100724.63;;;9.76;98.03
49030;BME280;43337;52.070;4.508;2022-11-15T09:20:36;100743.31;;;9.91;97.75
49030;BME280;43337;52.070;4.508;2022-11-15T09:23:02;100730.16;;;9.91;97.26
49030;BME280;43337;52.070;4.508;2022-11-15T09:25:29;100733.59;;;9.93;97.23
49030;BME280;43337;52.070;4.508;2022-11-15T09:27:55;100730.78;;;9.97;97.56
49030;BME280;43337;52.070;4.508;2022-11-15T09:30:20;100746.44;;;10.00;97.57
49030;BME280;43337;52.070;4.508;2022-11-15T09:32:46;100746.31;;;10.03;97.00
49030;BME280;43337;52.070;4.508;2022-11-15T09:35:11;100729.78;;;10.00;96.91
49030;BME280;43337;52.070;4.508;2022-11-15T09:37:36;100740.84;;;10.08;96.78
49030;BME280;43337;52.070;4.508;2022-11-15T09:40:02;100743.28;;;10.13;96.30
49030;BME280;43337;52.070;4.508;2022-11-15T09:45:34;100733.47;;;10.16;96.00
49030;BME280;43337;52.070;4.508;2022-11-15T09:48:38;100722.44;;;10.08;96.31
49030;BME280;43337;52.070;4.508;2022-11-15T09:51:18;100724.63;;;10.19;96.37
49030;BME280;43337;52.070;4.508;2022-11-15T09:53:52;100720.22;;;10.19;96.47
49030;BME280;43337;52.070;4.508;2022-11-15T09:56:21;100715.84;;;10.18;95.85
49030;BME280;43337;52.070;4.508;2022-11-15T10:01:37;100702.56;;;10.21;95.24
49030;BME280;43337;52.070;4.508;2022-11-15T10:04:04;100689.22;;;10.26;95.29
49030;BME280;43337;52.070;4.508;2022-11-15T10:06:31;100696.78;;;10.34;95.14
49030;BME280;43337;52.070;4.508;2022-11-15T10:11:40;100674.84;;;10.35;94.74
49030;BME280;43337;52.070;4.508;2022-11-15T10:14:18;100689.56;;;10.39;94.84
49030;BME280;43337;52.070;4.508;2022-11-15T10:22:41;100673.22;;;10.51;94.02
49030;BME280;43337;52.070;4.508;2022-11-15T10:27:35;100680.22;;;10.71;94.33
49030;BME280;43337;52.070;4.508;2022-11-15T10:30:04;100670.41;;;10.74;93.59
49030;BME280;43337;52.070;4.508;2022-11-15T10:32:36;100669.91;;;10.85;93.40
49030;BME280;43337;52.070;4.508;2022-11-15T10:35:16;100666.97;;;10.91;93.28
49030;BME280;43337;52.070;4.508;2022-11-15T10:37:42;100664.78;;;11.01;92.63
49030;BME280;43337;52.070;4.508;2022-11-15T10:40:22;100646.91;;;11.08;92.73
49030;BME280;43337;52.070;4.508;2022-11-15T10:43:04;100643.13;;;11.13;92.84
49030;BME280;43337;52.070;4.508;2022-11-15T10:45:32;100637.63;;;11.18;91.66
49030;BME280;43337;52.070;4.508;2022-11-15T10:50:42;100623.91;;;11.11;91.35
49030;BME280;43337;52.070;4.508;2022-11-15T10:53:27;100637.34;;;11.24;91.83
49030;BME280;43337;52.070;4.508;2022-11-15T10:55:57;100634.84;;;11.21;91.40
49030;BME280;43337;52.070;4.508;2022-11-15T10:58:34;100643.88;;;11.34;91.12
49030;BME280;43337;52.070;4.508;2022-11-15T11:01:22;100646.44;;;11.36;90.54
49030;BME280;43337;52.070;4.508;2022-11-15T11:03:59;100647.97;;;11.40;90.37
49030;BME280;43337;52.070;4.508;2022-11-15T11:06:25;100632.25;;;11.38;90.58
49030;BME280;43337;52.070;4.508;2022-11-15T11:09:00;100632.25;;;11.38;90.99
49030;BME280;43337;52.070;4.508;2022-11-15T11:11:46;100625.91;;;11.42;90.43
49030;BME280;43337;52.070;4.508;2022-11-15T11:14:21;100622.41;;;11.42;89.66
49030;BME280;43337;52.070;4.508;2022-11-15T11:17:04;100615.50;;;11.39;89.87
49030;BME280;43337;52.070;4.508;2022-11-15T11:19:51;100620.63;;;11.42;89.72
49030;BME280;43337;52.070;4.508;2022-11-15T11:22:23;100605.66;;;11.43;89.75
49030;BME280;43337;52.070;4.508;2022-11-15T11:41:08;100558.44;;;11.56;88.49
49030;BME280;43337;52.070;4.508;2022-11-15T11:47:07;100560.22;;;11.55;87.63
49030;BME280;43337;52.070;4.508;2022-11-15T11:49:41;100549.91;;;11.51;87.59
49030;BME280;43337;52.070;4.508;2022-11-15T11:57:10;100528.50;;;11.57;87.58
49030;BME280;43337;52.070;4.508;2022-11-15T11:59:51;100529.72;;;11.67;86.13
49030;BME280;43337;52.070;4.508;2022-11-15T12:02:27;100531.44;;;11.68;86.34
49030;BME280;43337;52.070;4.508;2022-11-15T12:05:01;100531.53;;;11.66;85.87
49030;BME280;43337;52.070;4.508;2022-11-15T12:07:32;100528.97;;;11.65;85.79
49030;BME280;43337;52.070;4.508;2022-11-15T12:10:04;100518.34;;;11.66;86.38
49030;BME280;43337;52.070;4.508;2022-11-15T12:17:33;100494.44;;;11.69;84.77
49030;BME280;43337;52.070;4.508;2022-11-15T12:20:02;100494.88;;;11.78;85.15
49030;BME280;43337;52.070;4.508;2022-11-15T12:25:05;100487.34;;;11.87;83.50
49030;BME280;43337;52.070;4.508;2022-11-15T12:27:37;100482.63;;;11.94;84.48
49030;BME280;43337;52.070;4.508;2022-11-15T12:30:24;100480.56;;;11.99;84.82
49030;BME280;43337;52.070;4.508;2022-11-15T12:32:59;100474.81;;;12.08;84.76
49030;BME280;43337;52.070;4.508;2022-11-15T12:37:52;100462.03;;;12.16;84.16
49030;BME280;43337;52.070;4.508;2022-11-15T12:40:30;100466.81;;;12.26;83.50
49030;BME280;43337;52.070;4.508;2022-11-15T12:45:35;100455.81;;;12.33;83.29
49030;BME280;43337;52.070;4.508;2022-11-15T13:07:01;100422.44;;;12.32;81.86
49030;BME280;43337;52.070;4.508;2022-11-15T13:11:53;100409.69;;;12.25;82.05
49030;BME280;43337;52.070;4.508;2022-11-15T13:25:30;100395.53;;;12.10;81.09
49030;BME280;43337;52.070;4.508;2022-11-15T13:28:00;100399.22;;;12.07;81.31
49030;BME280;43337;52.070;4.508;2022-11-15T13:30:29;100380.16;;;12.02;81.06
49030;BME280;43337;52.070;4.508;2022-11-15T13:32:55;100383.72;;;12.01;80.65
49030;BME280;43337;52.070;4.508;2022-11-15T13:35:25;100376.06;;;11.96;81.29
49030;BME280;43337;52.070;4.508;2022-11-15T13:37:52;100365.69;;;11.93;81.13
49030;BME280;43337;52.070;4.508;2022-11-15T13:40:27;100358.88;;;11.89;80.61
49030;BME280;43337;52.070;4.508;2022-11-15T13:42:56;100366.69;;;11.91;80.59
49030;BME280;43337;52.070;4.508;2022-11-15T13:45:21;100356.25;;;11.89;80.52
49030;BME280;43337;52.070;4.508;2022-11-15T13:47:57;100350.97;;;11.89;80.54
49030;BME280;43337;52.070;4.508;2022-11-15T13:50:30;100349.28;;;11.88;80.45
49030;BME280;43337;52.070;4.508;2022-11-15T13:53:01;100339.56;;;11.89;80.67
49030;BME280;43337;52.070;4.508;2022-11-15T13:55:29;100338.09;;;11.83;80.27
49030;BME280;43337;52.070;4.508;2022-11-15T13:58:02;100337.88;;;11.88;80.66
49030;BME280;43337;52.070;4.508;2022-11-15T14:00:39;100320.56;;;11.82;80.83
49030;BME280;43337;52.070;4.508;2022-11-15T14:03:15;100319.56;;;11.85;80.68
49030;BME280;43337;52.070;4.508;2022-11-15T14:05:41;100309.16;;;11.82;80.80
49030;BME280;43337;52.070;4.508;2022-11-15T14:08:22;100310.09;;;11.81;80.43
49030;BME280;43337;52.070;4.508;2022-11-15T14:11:25;100297.94;;;11.78;80.26
49030;BME280;43337;52.070;4.508;2022-11-15T14:16:37;100291.03;;;11.76;79.39
49030;BME280;43337;52.070;4.508;2022-11-15T14:19:04;100279.06;;;11.70;79.47
49030;BME280;43337;52.070;4.508;2022-11-15T14:21:30;100274.72;;;11.69;78.98
49030;BME280;43337;52.070;4.508;2022-11-15T14:24:19;100265.28;;;11.65;79.24
49030;BME280;43337;52.070;4.508;2022-11-15T14:26:46;100268.66;;;11.67;79.40
49030;BME280;43337;52.070;4.508;2022-11-15T14:29:25;100267.72;;;11.68;79.77
49030;BME280;43337;52.070;4.508;2022-11-15T14:31:52;100275.63;;;11.68;79.57
49030;BME280;43337;52.070;4.508;2022-11-15T14:34:17;100262.66;;;11.65;79.63
49030;BME280;43337;52.070;4.508;2022-11-15T14:36:43;100251.31;;;11.63;79.64
49030;BME280;43337;52.070;4.508;2022-11-15T14:39:09;100259.06;;;11.66;79.65
49030;BME280;43337;52.070;4.508;2022-11-15T14:41:35;100247.75;;;11.64;79.52
49030;BME280;43337;52.070;4.508;2022-11-15T14:44:05;100240.59;;;11.66;79.46
49030;BME280;43337;52.070;4.508;2022-11-15T14:46:30;100233.81;;;11.62;79.13
49030;BME280;43337;52.070;4.508;2022-11-15T14:48:56;100234.38;;;11.67;79.41
49030;BME280;43337;52.070;4.508;2022-11-15T14:51:22;100233.53;;;11.66;79.48
49030;BME280;43337;52.070;4.508;2022-11-15T14:53:47;100228.28;;;11.66;79.66
49030;BME280;43337;52.070;4.508;2022-11-15T14:56:13;100231.00;;;11.65;79.27
49030;BME280;43337;52.070;4.508;2022-11-15T14:58:39;100228.38;;;11.65;79.19
49030;BME280;43337;52.070;4.508;2022-11-15T15:01:22;100229.38;;;11.62;79.45
49030;BME280;43337;52.070;4.508;2022-11-15T15:03:48;100224.22;;;11.61;79.34